createdAt,value
2022-10-01T00:02:30.736Z,17.95
2022-10-01T00:07:39.845Z,17.86
2022-10-01T00:12:46.471Z,17.55
2022-10-01T00:17:49.905Z,17.52
2022-10-01T00:22:54.829Z,17.98
2022-10-01T00:27:58.280Z,18.10
2022-10-01T00:33:01.859Z,18.16
2022-10-01T00:38:06.654Z,18.37
2022-10-01T00:43:22.697Z,18.50
2022-10-01T00:48:26.342Z,18.36
2022-10-01T00:53:31.239Z,18.30
2022-10-01T00:58:34.840Z,18.24
2022-10-01T01:03:38.487Z,18.27
2022-10-01T01:08:43.804Z,18.22
2022-10-01T01:13:52.893Z,18.07
2022-10-01T01:19:02.840Z,17.94
2022-10-01T01:24:46.043Z,17.89
2022-10-01T01:29:53.960Z,17.88
2022-10-01T01:35:02.205Z,17.53
2022-10-01T01:40:11.018Z,17.97
2022-10-01T01:45:19.156Z,17.78
2022-10-01T01:50:25.141Z,17.89
2022-10-01T01:55:29.886Z,18.11
2022-10-01T02:00:34.972Z,17.82
2022-10-01T02:05:43.824Z,18.11
2022-10-01T02:11:03.802Z,18.14
2022-10-01T02:16:18.909Z,18.31
2022-10-01T02:21:24.931Z,18.29
2022-10-01T02:26:29.073Z,18.06
2022-10-01T02:31:34.385Z,18.29
2022-10-01T02:36:41.141Z,18.16
2022-10-01T02:41:47.006Z,18.24
2022-10-01T02:46:54.855Z,18.50
2022-10-01T02:52:01.164Z,18.37
2022-10-01T02:57:21.894Z,18.34
2022-10-01T03:02:28.016Z,18.50
2022-10-01T03:07:32.500Z,18.24
2022-10-01T03:12:36.175Z,18.22
2022-10-01T03:17:41.002Z,18.43
2022-10-01T03:22:46.928Z,18.47
2022-10-01T03:27:50.324Z,18.56
2022-10-01T03:32:55.124Z,18.39
2022-10-01T03:37:58.489Z,18.46
2022-10-01T03:43:01.956Z,18.30
2022-10-01T03:48:06.811Z,18.43
2022-10-01T03:53:10.567Z,18.51
2022-10-01T03:58:13.963Z,18.37
2022-10-01T04:03:19.330Z,18.80
2022-10-01T04:08:24.518Z,18.64
2022-10-01T04:13:29.889Z,18.71
2022-10-01T04:18:35.051Z,18.64
2022-10-01T04:23:38.401Z,18.48
2022-10-01T04:28:41.774Z,18.39
2022-10-01T04:33:46.559Z,18.31
2022-10-01T04:38:51.992Z,18.34
2022-10-01T04:43:55.332Z,18.13
2022-10-01T04:49:01.009Z,18.46
2022-10-01T04:54:04.486Z,18.30
2022-10-01T04:59:07.832Z,18.14
2022-10-01T05:04:12.843Z,18.16
2022-10-01T05:09:16.217Z,18.10
2022-10-01T05:14:21.125Z,18.35
2022-10-01T05:19:28.879Z,18.28
2022-10-01T05:24:32.189Z,17.92
2022-10-01T05:29:35.547Z,17.69
2022-10-01T05:34:40.521Z,17.60
2022-10-01T05:40:02.963Z,17.39
2022-10-01T05:45:07.219Z,17.44
2022-10-01T05:50:12.125Z,17.30
2022-10-01T05:55:15.722Z,17.46
2022-10-01T06:00:20.479Z,16.92
2022-10-01T06:05:25.923Z,17.03
2022-10-01T06:10:30.294Z,17.23
2022-10-01T06:15:37.368Z,16.63
2022-10-01T06:20:42.251Z,17.16
2022-10-01T06:25:45.654Z,17.08
2022-10-01T06:30:49.681Z,17.13
2022-10-01T06:35:54.513Z,17.36
2022-10-01T06:40:58.998Z,17.30
2022-10-01T06:46:03.566Z,17.14
2022-10-01T06:51:08.620Z,17.02
2022-10-01T06:56:12.026Z,17.11
2022-10-01T07:01:19.676Z,17.13
2022-10-01T07:06:25.336Z,17.61
2022-10-01T07:11:28.719Z,17.32
2022-10-01T07:16:32.170Z,17.57
2022-10-01T07:21:37.368Z,17.19
2022-10-01T07:26:40.895Z,17.47
2022-10-01T07:31:44.377Z,17.53
2022-10-01T07:36:50.045Z,17.88
2022-10-01T07:41:53.643Z,17.38
2022-10-01T07:46:57.191Z,17.42
2022-10-01T07:52:02.555Z,17.67
2022-10-01T07:57:05.956Z,17.59
2022-10-01T08:02:13.916Z,17.57
2022-10-01T08:07:18.752Z,17.54
2022-10-01T08:12:22.132Z,17.66
2022-10-01T08:17:29.382Z,17.33
2022-10-01T08:22:37.542Z,17.25
2022-10-01T08:27:43.307Z,17.22
2022-10-01T08:32:46.786Z,17.24
2022-10-01T08:37:51.797Z,17.40
2022-10-01T08:42:59.262Z,17.60
2022-10-01T08:48:06.499Z,17.81
2022-10-01T08:53:16.459Z,17.91
2022-10-01T08:58:24.452Z,18.02
2022-10-01T09:03:30.170Z,18.05
2022-10-01T09:08:45.950Z,17.85
2022-10-01T09:14:11.727Z,17.96
2022-10-01T09:19:25.676Z,18.10
2022-10-01T09:24:43.907Z,18.34
2022-10-01T09:29:50.260Z,18.24
2022-10-01T09:34:54.708Z,18.43
2022-10-01T09:40:12.661Z,18.62
2022-10-01T09:45:16.955Z,18.50
2022-10-01T09:50:23.406Z,18.70
2022-10-01T09:55:32.379Z,19.23
2022-10-01T10:00:38.210Z,19.63
2022-10-01T10:05:43.701Z,19.24
2022-10-01T10:10:53.046Z,19.39
2022-10-01T10:15:58.375Z,19.70
2022-10-01T10:21:04.042Z,19.71
2022-10-01T10:26:16.438Z,19.46
2022-10-01T10:31:22.192Z,20.22
2022-10-01T10:36:29.616Z,20.47
2022-10-01T10:41:35.589Z,20.89
2022-10-01T10:46:44.017Z,20.46
2022-10-01T10:51:53.844Z,20.37
2022-10-01T10:57:02.132Z,21.13
2022-10-01T11:02:07.302Z,21.43
2022-10-01T11:07:13.369Z,21.16
2022-10-01T11:12:27.721Z,20.99
2022-10-01T11:17:55.175Z,21.00
2022-10-01T11:23:27.566Z,21.17
2022-10-01T11:28:47.050Z,21.61
2022-10-01T11:33:59.333Z,21.96
2022-10-01T11:39:05.748Z,21.94
2022-10-01T11:44:17.132Z,22.81
2022-10-01T11:49:33.948Z,22.36
2022-10-01T11:54:41.483Z,23.47
2022-10-01T11:59:50.953Z,23.20
2022-10-01T12:04:58.979Z,23.75
2022-10-01T12:10:08.606Z,23.48
2022-10-01T12:15:18.453Z,24.09
2022-10-01T12:20:24.578Z,24.46
2022-10-01T12:25:33.487Z,24.04
2022-10-01T12:30:44.121Z,23.92
2022-10-01T12:35:56.502Z,24.28
2022-10-01T12:41:04.636Z,24.24
2022-10-01T12:46:15.154Z,24.75
2022-10-01T12:51:34.590Z,24.77
2022-10-01T12:56:39.346Z,24.11
2022-10-01T13:01:56.212Z,24.53
2022-10-01T13:07:16.114Z,22.81
2022-10-01T13:12:37.371Z,24.25
2022-10-01T13:17:46.170Z,24.07
2022-10-01T13:22:52.943Z,24.27
2022-10-01T13:28:00.685Z,24.53
2022-10-01T13:33:20.493Z,24.56
2022-10-01T13:38:32.214Z,25.44
2022-10-01T13:43:36.494Z,25.31
2022-10-01T13:48:46.590Z,25.06
2022-10-01T13:53:53.349Z,24.49
2022-10-01T13:58:56.924Z,24.31
2022-10-01T14:04:08.192Z,23.82
2022-10-01T14:09:15.194Z,23.29
2022-10-01T14:14:39.803Z,20.88
2022-10-01T14:19:49.620Z,19.04
2022-10-01T14:25:10.678Z,19.77
2022-10-01T14:30:16.770Z,19.29
2022-10-01T14:35:29.806Z,19.43
2022-10-01T14:40:38.228Z,19.51
2022-10-01T14:45:52.892Z,19.61
2022-10-01T14:50:59.496Z,19.44
2022-10-01T14:56:06.469Z,19.83
2022-10-01T15:01:18.634Z,19.58
2022-10-01T15:06:24.502Z,19.71
2022-10-01T15:11:29.563Z,19.73
2022-10-01T15:16:34.058Z,19.93
2022-10-01T15:21:41.351Z,20.11
2022-10-01T15:26:47.415Z,20.09
2022-10-01T15:31:53.151Z,20.03
2022-10-01T15:36:59.856Z,20.39
2022-10-01T15:42:08.674Z,20.50
2022-10-01T15:47:26.291Z,20.47
2022-10-01T15:52:49.396Z,20.65
2022-10-01T15:57:56.566Z,19.70
2022-10-01T16:03:00.382Z,20.19
2022-10-01T16:08:05.533Z,19.89
2022-10-01T16:13:30.325Z,20.34
2022-10-01T16:18:34.833Z,19.86
2022-10-01T16:23:43.940Z,20.41
2022-10-01T16:28:47.570Z,20.18
2022-10-01T16:33:51.066Z,19.77
2022-10-01T16:38:57.343Z,19.54
2022-10-01T16:44:02.917Z,19.98
2022-10-01T16:49:11.019Z,20.10
2022-10-01T16:54:23.915Z,20.04
2022-10-01T16:59:27.331Z,20.03
2022-10-01T17:04:34.109Z,19.99
2022-10-01T17:09:39.083Z,19.20
2022-10-01T17:14:42.657Z,19.91
2022-10-01T17:19:46.193Z,19.60
2022-10-01T17:24:51.146Z,19.76
2022-10-01T17:29:54.619Z,19.49
2022-10-01T17:34:58.872Z,19.80
2022-10-01T17:40:04.393Z,19.24
2022-10-01T17:45:10.480Z,19.81
2022-10-01T17:50:14.386Z,20.02
2022-10-01T17:55:20.652Z,20.00
2022-10-01T18:00:24.103Z,19.26
2022-10-01T18:05:28.043Z,19.01
2022-10-01T18:10:34.824Z,19.22
2022-10-01T18:15:39.534Z,19.56
2022-10-01T18:27:00.388Z,18.63
2022-10-01T18:32:13.882Z,18.86
2022-10-01T18:37:26.228Z,18.93
2022-10-01T18:43:02.497Z,19.18
2022-10-01T18:48:35.514Z,19.44
2022-10-01T18:54:01.099Z,19.55
2022-10-01T18:59:22.692Z,19.36
2022-10-01T19:04:54.128Z,19.36
2022-10-01T19:10:04.622Z,19.46
2022-10-01T19:15:18.236Z,19.25
2022-10-01T19:20:32.001Z,19.18
2022-10-01T19:25:38.513Z,19.09
2022-10-01T19:30:51.014Z,19.15
2022-10-01T19:35:59.201Z,18.91
2022-10-01T19:41:09.026Z,18.96
2022-10-01T19:46:18.813Z,18.98
2022-10-01T19:51:28.694Z,18.95
2022-10-01T19:56:34.033Z,18.92
2022-10-01T20:01:39.768Z,18.65
2022-10-01T20:06:47.501Z,18.80
2022-10-01T20:11:56.243Z,18.78
2022-10-01T20:17:00.113Z,18.86
2022-10-01T20:22:09.627Z,18.72
2022-10-01T20:27:22.517Z,18.48
2022-10-01T20:32:29.749Z,18.96
2022-10-01T20:37:45.255Z,18.86
2022-10-01T20:42:51.287Z,18.93
2022-10-01T20:48:00.134Z,18.93
2022-10-01T20:53:17.595Z,18.90
2022-10-01T20:58:24.512Z,18.85
2022-10-01T21:03:31.813Z,18.66
2022-10-01T21:08:42.113Z,18.99
2022-10-01T21:13:51.346Z,18.92
2022-10-01T21:19:01.613Z,18.92
2022-10-01T21:24:17.965Z,18.67
2022-10-01T21:29:48.277Z,18.74
2022-10-01T21:35:00.215Z,18.65
2022-10-01T21:40:12.389Z,18.83
2022-10-01T21:45:24.453Z,18.88
2022-10-01T21:50:37.137Z,18.83
2022-10-01T21:55:53.167Z,18.81
2022-10-01T22:01:00.820Z,18.70
2022-10-01T22:06:11.799Z,18.88
2022-10-01T22:11:18.824Z,18.64
2022-10-01T22:16:23.183Z,18.66
2022-10-01T22:21:30.904Z,18.84
2022-10-01T22:26:39.216Z,18.95
2022-10-01T22:31:44.867Z,18.90
2022-10-01T22:36:51.626Z,18.93
2022-10-01T22:42:00.973Z,18.99
2022-10-01T22:47:23.288Z,18.91
2022-10-01T22:52:31.576Z,18.77
2022-10-01T22:57:51.412Z,19.01
2022-10-01T23:03:06.075Z,18.83
2022-10-01T23:08:16.881Z,18.85
2022-10-01T23:13:29.833Z,18.78
2022-10-01T23:18:43.943Z,18.93
2022-10-01T23:23:53.182Z,18.95
2022-10-01T23:29:07.972Z,18.95
2022-10-01T23:34:30.707Z,18.58
2022-10-01T23:39:41.711Z,18.56
2022-10-01T23:44:50.043Z,18.84
2022-10-01T23:49:55.838Z,18.73
2022-10-01T23:55:22.155Z,18.74
